sensor_id;sensor_type;location;lat;lon;timestamp;P1;durP1;ratioP1;P2;durP2;ratioP2
58069;SDS011;43863;52.256;21.048;2022-09-30T00:01:52;141.88;;;72.43;;
58069;SDS011;43863;52.256;21.048;2022-09-30T00:04:22;139.70;;;69.55;;
58069;SDS011;43863;52.256;21.048;2022-09-30T00:06:51;133.63;;;69.25;;
58069;SDS011;43863;52.256;21.048;2022-09-30T00:09:20;138.30;;;69.78;;
58069;SDS011;43863;52.256;21.048;2022-09-30T00:11:48;142.70;;;72.20;;
58069;SDS011;43863;52.256;21.048;2022-09-30T00:14:18;134.80;;;71.70;;
58069;SDS011;43863;52.256;21.048;2022-09-30T00:16:48;142.73;;;69.38;;
58069;SDS011;43863;52.256;21.048;2022-09-30T00:19:16;141.60;;;70.35;;
58069;SDS011;43863;52.256;21.048;2022-09-30T00:21:45;141.15;;;73.05;;
58069;SDS011;43863;52.256;21.048;2022-09-30T00:24:12;140.98;;;72.43;;
58069;SDS011;43863;52.256;21.048;2022-09-30T00:26:40;141.73;;;71.32;;
58069;SDS011;43863;52.256;21.048;2022-09-30T00:29:08;144.70;;;73.82;;
58069;SDS011;43863;52.256;21.048;2022-09-30T00:31:37;153.82;;;75.85;;
58069;SDS011;43863;52.256;21.048;2022-09-30T00:34:05;149.55;;;76.38;;
58069;SDS011;43863;52.256;21.048;2022-09-30T00:36:34;140.38;;;74.38;;
58069;SDS011;43863;52.256;21.048;2022-09-30T00:39:11;151.18;;;76.93;;
58069;SDS011;43863;52.256;21.048;2022-09-30T00:41:41;145.45;;;75.18;;
58069;SDS011;43863;52.256;21.048;2022-09-30T00:50:14;156.35;;;86.35;;
58069;SDS011;43863;52.256;21.048;2022-09-30T00:52:47;153.82;;;80.10;;
58069;SDS011;43863;52.256;21.048;2022-09-30T00:55:28;155.82;;;80.72;;
58069;SDS011;43863;52.256;21.048;2022-09-30T00:58:05;153.82;;;79.30;;
58069;SDS011;43863;52.256;21.048;2022-09-30T01:00:36;157.55;;;78.88;;
58069;SDS011;43863;52.256;21.048;2022-09-30T01:03:04;142.25;;;76.90;;
58069;SDS011;43863;52.256;21.048;2022-09-30T01:05:33;163.48;;;79.25;;
58069;SDS011;43863;52.256;21.048;2022-09-30T01:08:02;158.88;;;77.78;;
58069;SDS011;43863;52.256;21.048;2022-09-30T01:10:32;151.07;;;78.50;;
58069;SDS011;43863;52.256;21.048;2022-09-30T01:13:00;173.68;;;84.32;;
58069;SDS011;43863;52.256;21.048;2022-09-30T01:38:12;142.95;;;76.40;;
58069;SDS011;43863;52.256;21.048;2022-09-30T01:41:07;173.07;;;86.40;;
58069;SDS011;43863;52.256;21.048;2022-09-30T01:43:52;146.02;;;75.20;;
58069;SDS011;43863;52.256;21.048;2022-09-30T01:46:31;145.75;;;76.75;;
58069;SDS011;43863;52.256;21.048;2022-09-30T01:49:09;149.90;;;79.30;;
58069;SDS011;43863;52.256;21.048;2022-09-30T01:51:43;150.35;;;77.18;;
58069;SDS011;43863;52.256;21.048;2022-09-30T01:54:24;147.00;;;77.82;;
58069;SDS011;43863;52.256;21.048;2022-09-30T01:56:54;146.95;;;77.53;;
58069;SDS011;43863;52.256;21.048;2022-09-30T01:59:45;150.82;;;77.45;;
58069;SDS011;43863;52.256;21.048;2022-09-30T02:02:26;151.23;;;76.47;;
58069;SDS011;43863;52.256;21.048;2022-09-30T02:05:42;144.60;;;75.45;;
58069;SDS011;43863;52.256;21.048;2022-09-30T02:07:59;156.02;;;79.00;;
58069;SDS011;43863;52.256;21.048;2022-09-30T02:10:34;154.02;;;78.65;;
58069;SDS011;43863;52.256;21.048;2022-09-30T02:13:20;149.20;;;75.53;;
58069;SDS011;43863;52.256;21.048;2022-09-30T02:15:56;155.40;;;79.82;;
58069;SDS011;43863;52.256;21.048;2022-09-30T02:18:30;146.68;;;77.32;;
58069;SDS011;43863;52.256;21.048;2022-09-30T02:21:05;154.90;;;79.78;;
58069;SDS011;43863;52.256;21.048;2022-09-30T02:28:40;142.15;;;76.35;;
58069;SDS011;43863;52.256;21.048;2022-09-30T02:31:13;147.73;;;76.43;;
58069;SDS011;43863;52.256;21.048;2022-09-30T02:33:44;147.30;;;73.68;;
58069;SDS011;43863;52.256;21.048;2022-09-30T02:38:50;136.95;;;72.10;;
58069;SDS011;43863;52.256;21.048;2022-09-30T02:41:27;131.13;;;67.93;;
58069;SDS011;43863;52.256;21.048;2022-09-30T02:44:01;139.10;;;70.97;;
58069;SDS011;43863;52.256;21.048;2022-09-30T02:49:38;133.93;;;72.95;;
58069;SDS011;43863;52.256;21.048;2022-09-30T02:52:21;134.55;;;65.45;;
58069;SDS011;43863;52.256;21.048;2022-09-30T02:54:56;142.35;;;70.07;;
58069;SDS011;43863;52.256;21.048;2022-09-30T03:00:08;137.32;;;68.45;;
58069;SDS011;43863;52.256;21.048;2022-09-30T03:02:39;134.18;;;69.82;;
58069;SDS011;43863;52.256;21.048;2022-09-30T03:05:08;128.18;;;67.88;;
58069;SDS011;43863;52.256;21.048;2022-09-30T03:07:38;128.10;;;64.82;;
58069;SDS011;43863;52.256;21.048;2022-09-30T03:10:13;132.52;;;65.60;;
58069;SDS011;43863;52.256;21.048;2022-09-30T03:21:21;134.63;;;67.25;;
58069;SDS011;43863;52.256;21.048;2022-09-30T03:43:30;130.75;;;68.18;;
58069;SDS011;43863;52.256;21.048;2022-09-30T03:46:09;135.73;;;68.65;;
58069;SDS011;43863;52.256;21.048;2022-09-30T03:48:48;161.57;;;83.07;;
58069;SDS011;43863;52.256;21.048;2022-09-30T03:51:22;170.35;;;87.80;;
58069;SDS011;43863;52.256;21.048;2022-09-30T03:53:53;162.85;;;88.55;;
58069;SDS011;43863;52.256;21.048;2022-09-30T03:56:28;169.10;;;87.82;;
58069;SDS011;43863;52.256;21.048;2022-09-30T03:58:58;166.82;;;86.20;;
58069;SDS011;43863;52.256;21.048;2022-09-30T04:01:26;178.57;;;87.15;;
58069;SDS011;43863;52.256;21.048;2022-09-30T04:03:55;158.27;;;85.45;;
58069;SDS011;43863;52.256;21.048;2022-09-30T04:06:23;167.30;;;83.32;;
58069;SDS011;43863;52.256;21.048;2022-09-30T04:08:52;150.50;;;82.13;;
58069;SDS011;43863;52.256;21.048;2022-09-30T04:11:20;159.95;;;81.00;;
58069;SDS011;43863;52.256;21.048;2022-09-30T04:13:48;151.85;;;78.90;;
58069;SDS011;43863;52.256;21.048;2022-09-30T04:16:15;151.43;;;76.95;;
58069;SDS011;43863;52.256;21.048;2022-09-30T04:18:43;151.13;;;74.85;;
58069;SDS011;43863;52.256;21.048;2022-09-30T04:21:12;161.40;;;77.95;;
58069;SDS011;43863;52.256;21.048;2022-09-30T04:23:41;165.40;;;78.80;;
58069;SDS011;43863;52.256;21.048;2022-09-30T04:26:11;150.48;;;75.57;;
58069;SDS011;43863;52.256;21.048;2022-09-30T04:28:40;162.52;;;78.90;;
58069;SDS011;43863;52.256;21.048;2022-09-30T04:31:09;155.05;;;74.43;;
58069;SDS011;43863;52.256;21.048;2022-09-30T04:33:38;158.27;;;74.32;;
58069;SDS011;43863;52.256;21.048;2022-09-30T04:36:06;160.88;;;75.70;;
58069;SDS011;43863;52.256;21.048;2022-09-30T04:38:35;165.98;;;75.88;;
58069;SDS011;43863;52.256;21.048;2022-09-30T04:41:03;169.05;;;77.40;;
58069;SDS011;43863;52.256;21.048;2022-09-30T04:43:32;166.05;;;77.20;;
58069;SDS011;43863;52.256;21.048;2022-09-30T04:46:01;167.48;;;78.65;;
58069;SDS011;43863;52.256;21.048;2022-09-30T04:48:29;151.05;;;75.57;;
58069;SDS011;43863;52.256;21.048;2022-09-30T04:50:57;169.25;;;77.22;;
58069;SDS011;43863;52.256;21.048;2022-09-30T04:53:28;161.65;;;80.03;;
58069;SDS011;43863;52.256;21.048;2022-09-30T04:55:57;153.68;;;76.65;;
58069;SDS011;43863;52.256;21.048;2022-09-30T04:58:28;163.75;;;78.75;;
58069;SDS011;43863;52.256;21.048;2022-09-30T05:01:06;165.93;;;79.18;;
58069;SDS011;43863;52.256;21.048;2022-09-30T05:03:36;172.50;;;81.53;;
58069;SDS011;43863;52.256;21.048;2022-09-30T05:06:05;161.55;;;80.80;;
58069;SDS011;43863;52.256;21.048;2022-09-30T05:08:34;158.48;;;79.20;;
58069;SDS011;43863;52.256;21.048;2022-09-30T05:11:03;157.00;;;78.70;;
58069;SDS011;43863;52.256;21.048;2022-09-30T05:13:36;174.23;;;85.70;;
58069;SDS011;43863;52.256;21.048;2022-09-30T05:16:06;180.35;;;84.43;;
58069;SDS011;43863;52.256;21.048;2022-09-30T05:18:34;164.95;;;83.00;;
58069;SDS011;43863;52.256;21.048;2022-09-30T05:21:03;177.00;;;83.32;;
58069;SDS011;43863;52.256;21.048;2022-09-30T05:23:31;177.25;;;85.22;;
58069;SDS011;43863;52.256;21.048;2022-09-30T05:26:02;163.38;;;82.68;;
58069;SDS011;43863;52.256;21.048;2022-09-30T05:28:35;168.73;;;81.82;;
58069;SDS011;43863;52.256;21.048;2022-09-30T05:31:03;160.40;;;75.47;;
58069;SDS011;43863;52.256;21.048;2022-09-30T05:33:33;169.70;;;80.85;;
58069;SDS011;43863;52.256;21.048;2022-09-30T05:36:03;157.80;;;81.20;;
58069;SDS011;43863;52.256;21.048;2022-09-30T05:41:05;160.98;;;78.25;;
58069;SDS011;43863;52.256;21.048;2022-09-30T05:43:35;161.13;;;78.70;;
58069;SDS011;43863;52.256;21.048;2022-09-30T05:46:04;172.32;;;75.80;;
58069;SDS011;43863;52.256;21.048;2022-09-30T05:48:33;158.88;;;74.55;;
58069;SDS011;43863;52.256;21.048;2022-09-30T05:51:01;166.55;;;74.63;;
58069;SDS011;43863;52.256;21.048;2022-09-30T05:53:29;151.02;;;73.63;;
58069;SDS011;43863;52.256;21.048;2022-09-30T05:56:01;146.77;;;69.10;;
58069;SDS011;43863;52.256;21.048;2022-09-30T05:58:28;150.40;;;69.43;;
58069;SDS011;43863;52.256;21.048;2022-09-30T06:00:56;153.07;;;69.93;;
58069;SDS011;43863;52.256;21.048;2022-09-30T06:03:33;174.10;;;72.80;;
58069;SDS011;43863;52.256;21.048;2022-09-30T06:06:01;160.73;;;67.78;;
58069;SDS011;43863;52.256;21.048;2022-09-30T06:08:29;171.77;;;70.22;;
58069;SDS011;43863;52.256;21.048;2022-09-30T06:10:57;178.18;;;68.97;;
58069;SDS011;43863;52.256;21.048;2022-09-30T06:13:26;173.68;;;65.80;;
58069;SDS011;43863;52.256;21.048;2022-09-30T06:15:55;156.43;;;64.28;;
58069;SDS011;43863;52.256;21.048;2022-09-30T06:18:23;164.48;;;64.82;;
58069;SDS011;43863;52.256;21.048;2022-09-30T06:20:57;147.15;;;65.72;;
58069;SDS011;43863;52.256;21.048;2022-09-30T06:23:26;170.43;;;68.70;;
58069;SDS011;43863;52.256;21.048;2022-09-30T06:25:55;147.43;;;65.80;;
58069;SDS011;43863;52.256;21.048;2022-09-30T06:28:24;150.18;;;65.28;;
58069;SDS011;43863;52.256;21.048;2022-09-30T06:30:53;161.20;;;68.88;;
58069;SDS011;43863;52.256;21.048;2022-09-30T06:33:21;151.88;;;69.88;;
58069;SDS011;43863;52.256;21.048;2022-09-30T06:35:49;165.45;;;68.40;;
58069;SDS011;43863;52.256;21.048;2022-09-30T06:38:17;161.93;;;69.68;;
58069;SDS011;43863;52.256;21.048;2022-09-30T06:40:45;176.52;;;71.28;;
58069;SDS011;43863;52.256;21.048;2022-09-30T06:43:16;153.07;;;66.25;;
58069;SDS011;43863;52.256;21.048;2022-09-30T06:45:45;166.80;;;65.57;;
58069;SDS011;43863;52.256;21.048;2022-09-30T06:48:14;163.95;;;64.97;;
58069;SDS011;43863;52.256;21.048;2022-09-30T06:50:56;164.18;;;61.67;;
58069;SDS011;43863;52.256;21.048;2022-09-30T06:53:28;161.70;;;63.00;;
58069;SDS011;43863;52.256;21.048;2022-09-30T06:55:56;163.35;;;60.05;;
58069;SDS011;43863;52.256;21.048;2022-09-30T06:58:24;154.25;;;63.90;;
58069;SDS011;43863;52.256;21.048;2022-09-30T07:00:55;152.02;;;59.55;;
58069;SDS011;43863;52.256;21.048;2022-09-30T07:03:28;161.38;;;63.40;;
58069;SDS011;43863;52.256;21.048;2022-09-30T07:06:00;152.15;;;64.20;;
58069;SDS011;43863;52.256;21.048;2022-09-30T07:08:29;159.73;;;66.22;;
58069;SDS011;43863;52.256;21.048;2022-09-30T07:10:59;144.27;;;65.10;;
58069;SDS011;43863;52.256;21.048;2022-09-30T07:13:30;136.15;;;66.30;;
58069;SDS011;43863;52.256;21.048;2022-09-30T07:15:59;145.35;;;67.20;;
58069;SDS011;43863;52.256;21.048;2022-09-30T07:18:27;134.30;;;61.95;;
58069;SDS011;43863;52.256;21.048;2022-09-30T07:20:55;129.50;;;62.85;;
58069;SDS011;43863;52.256;21.048;2022-09-30T07:23:24;126.00;;;61.17;;
58069;SDS011;43863;52.256;21.048;2022-09-30T07:25:56;128.40;;;60.10;;
58069;SDS011;43863;52.256;21.048;2022-09-30T07:28:27;123.88;;;60.97;;
58069;SDS011;43863;52.256;21.048;2022-09-30T07:31:01;129.05;;;62.10;;
58069;SDS011;43863;52.256;21.048;2022-09-30T07:33:54;122.32;;;61.60;;
58069;SDS011;43863;52.256;21.048;2022-09-30T07:36:24;129.13;;;63.40;;
58069;SDS011;43863;52.256;21.048;2022-09-30T07:39:00;120.68;;;61.95;;
58069;SDS011;43863;52.256;21.048;2022-09-30T07:41:34;122.35;;;61.33;;
58069;SDS011;43863;52.256;21.048;2022-09-30T07:44:06;120.90;;;61.05;;
58069;SDS011;43863;52.256;21.048;2022-09-30T07:46:38;125.38;;;58.97;;
58069;SDS011;43863;52.256;21.048;2022-09-30T07:49:07;109.60;;;56.20;;
58069;SDS011;43863;52.256;21.048;2022-09-30T07:51:41;108.32;;;55.70;;
58069;SDS011;43863;52.256;21.048;2022-09-30T07:54:15;111.38;;;56.88;;
58069;SDS011;43863;52.256;21.048;2022-09-30T07:56:45;115.13;;;56.45;;
58069;SDS011;43863;52.256;21.048;2022-09-30T07:59:34;113.82;;;58.17;;
58069;SDS011;43863;52.256;21.048;2022-09-30T08:02:05;118.28;;;61.05;;
58069;SDS011;43863;52.256;21.048;2022-09-30T08:04:34;122.45;;;62.53;;
58069;SDS011;43863;52.256;21.048;2022-09-30T08:07:06;113.10;;;59.67;;
58069;SDS011;43863;52.256;21.048;2022-09-30T08:09:34;108.35;;;60.00;;
58069;SDS011;43863;52.256;21.048;2022-09-30T08:12:02;108.13;;;60.72;;
58069;SDS011;43863;52.256;21.048;2022-09-30T08:14:30;111.18;;;55.67;;
58069;SDS011;43863;52.256;21.048;2022-09-30T08:16:58;106.47;;;54.90;;
58069;SDS011;43863;52.256;21.048;2022-09-30T08:19:27;99.45;;;54.50;;
58069;SDS011;43863;52.256;21.048;2022-09-30T08:21:56;97.78;;;53.72;;
58069;SDS011;43863;52.256;21.048;2022-09-30T08:24:25;93.13;;;52.28;;
58069;SDS011;43863;52.256;21.048;2022-09-30T08:26:54;95.28;;;51.70;;
58069;SDS011;43863;52.256;21.048;2022-09-30T08:29:22;105.47;;;54.92;;
58069;SDS011;43863;52.256;21.048;2022-09-30T08:32:10;100.95;;;54.25;;
58069;SDS011;43863;52.256;21.048;2022-09-30T08:34:38;96.10;;;51.08;;
58069;SDS011;43863;52.256;21.048;2022-09-30T08:37:06;97.20;;;50.88;;
58069;SDS011;43863;52.256;21.048;2022-09-30T08:39:36;92.53;;;52.22;;
58069;SDS011;43863;52.256;21.048;2022-09-30T08:45:08;94.10;;;49.45;;
58069;SDS011;43863;52.256;21.048;2022-09-30T08:50:56;76.40;;;45.55;;
58069;SDS011;43863;52.256;21.048;2022-09-30T08:53:35;74.72;;;43.80;;
58069;SDS011;43863;52.256;21.048;2022-09-30T08:56:11;75.78;;;43.15;;
58069;SDS011;43863;52.256;21.048;2022-09-30T08:58:47;76.05;;;40.50;;
58069;SDS011;43863;52.256;21.048;2022-09-30T09:03:51;68.70;;;40.20;;
58069;SDS011;43863;52.256;21.048;2022-09-30T09:12:30;76.50;;;42.47;;
58069;SDS011;43863;52.256;21.048;2022-09-30T09:20:57;86.53;;;43.95;;
58069;SDS011;43863;52.256;21.048;2022-09-30T09:23:26;83.60;;;43.38;;
58069;SDS011;43863;52.256;21.048;2022-09-30T09:25:59;85.25;;;45.00;;
58069;SDS011;43863;52.256;21.048;2022-09-30T09:28:30;78.65;;;42.47;;
58069;SDS011;43863;52.256;21.048;2022-09-30T09:31:04;87.80;;;45.63;;
58069;SDS011;43863;52.256;21.048;2022-09-30T09:33:34;80.47;;;44.22;;
58069;SDS011;43863;52.256;21.048;2022-09-30T09:36:27;87.32;;;44.08;;
58069;SDS011;43863;52.256;21.048;2022-09-30T09:39:01;81.00;;;41.92;;
58069;SDS011;43863;52.256;21.048;2022-09-30T09:47:27;79.72;;;41.85;;
58069;SDS011;43863;52.256;21.048;2022-09-30T09:49:56;76.72;;;39.75;;
58069;SDS011;43863;52.256;21.048;2022-09-30T09:55:37;62.20;;;34.72;;
58069;SDS011;43863;52.256;21.048;2022-09-30T10:00:36;62.00;;;33.43;;
58069;SDS011;43863;52.256;21.048;2022-09-30T10:03:28;61.63;;;31.35;;
58069;SDS011;43863;52.256;21.048;2022-09-30T10:06:06;56.95;;;29.52;;
58069;SDS011;43863;52.256;21.048;2022-09-30T10:08:51;49.13;;;25.88;;
58069;SDS011;43863;52.256;21.048;2022-09-30T10:11:22;49.90;;;25.60;;
58069;SDS011;43863;52.256;21.048;2022-09-30T10:16:27;48.75;;;24.58;;
58069;SDS011;43863;52.256;21.048;2022-09-30T10:19:16;48.72;;;23.80;;
58069;SDS011;43863;52.256;21.048;2022-09-30T10:24:36;42.88;;;21.88;;
58069;SDS011;43863;52.256;21.048;2022-09-30T10:30:00;42.55;;;21.25;;
58069;SDS011;43863;52.256;21.048;2022-09-30T10:32:29;40.28;;;20.02;;
58069;SDS011;43863;52.256;21.048;2022-09-30T10:35:02;41.72;;;21.83;;
58069;SDS011;43863;52.256;21.048;2022-09-30T10:37:38;42.78;;;22.13;;
58069;SDS011;43863;52.256;21.048;2022-09-30T10:40:18;45.08;;;22.20;;
58069;SDS011;43863;52.256;21.048;2022-09-30T10:42:53;42.45;;;22.85;;
58069;SDS011;43863;52.256;21.048;2022-09-30T10:45:23;39.38;;;21.08;;
58069;SDS011;43863;52.256;21.048;2022-09-30T10:48:04;43.17;;;22.80;;
58069;SDS011;43863;52.256;21.048;2022-09-30T10:50:40;46.03;;;19.98;;
58069;SDS011;43863;52.256;21.048;2022-09-30T10:53:23;39.58;;;21.30;;
58069;SDS011;43863;52.256;21.048;2022-09-30T10:55:52;38.88;;;20.08;;
58069;SDS011;43863;52.256;21.048;2022-09-30T10:58:22;38.63;;;19.65;;
58069;SDS011;43863;52.256;21.048;2022-09-30T11:01:06;39.45;;;19.70;;
58069;SDS011;43863;52.256;21.048;2022-09-30T11:03:58;38.83;;;21.33;;
58069;SDS011;43863;52.256;21.048;2022-09-30T11:06:32;42.17;;;20.40;;
58069;SDS011;43863;52.256;21.048;2022-09-30T11:11:38;41.35;;;19.55;;
58069;SDS011;43863;52.256;21.048;2022-09-30T11:17:07;43.10;;;20.17;;
58069;SDS011;43863;52.256;21.048;2022-09-30T11:19:55;40.63;;;21.00;;
58069;SDS011;43863;52.256;21.048;2022-09-30T11:25:07;35.47;;;18.85;;
58069;SDS011;43863;52.256;21.048;2022-09-30T11:30:29;36.83;;;19.10;;
58069;SDS011;43863;52.256;21.048;2022-09-30T12:00:46;36.20;;;19.02;;
58069;SDS011;43863;52.256;21.048;2022-09-30T12:03:21;40.92;;;19.35;;
58069;SDS011;43863;52.256;21.048;2022-09-30T12:05:56;44.88;;;22.60;;
58069;SDS011;43863;52.256;21.048;2022-09-30T12:11:03;34.40;;;18.73;;
58069;SDS011;43863;52.256;21.048;2022-09-30T12:13:40;41.65;;;19.25;;
58069;SDS011;43863;52.256;21.048;2022-09-30T12:16:15;37.38;;;18.25;;
58069;SDS011;43863;52.256;21.048;2022-09-30T12:21:32;33.40;;;17.60;;
58069;SDS011;43863;52.256;21.048;2022-09-30T12:26:58;34.38;;;17.05;;
58069;SDS011;43863;52.256;21.048;2022-09-30T12:29:33;40.08;;;17.90;;
58069;SDS011;43863;52.256;21.048;2022-09-30T12:40:45;34.00;;;16.52;;
58069;SDS011;43863;52.256;21.048;2022-09-30T12:45:58;31.88;;;16.30;;
58069;SDS011;43863;52.256;21.048;2022-09-30T12:48:38;33.55;;;16.98;;
58069;SDS011;43863;52.256;21.048;2022-09-30T12:54:18;32.70;;;16.42;;
58069;SDS011;43863;52.256;21.048;2022-09-30T12:56:47;35.60;;;17.88;;
58069;SDS011;43863;52.256;21.048;2022-09-30T12:59:24;31.75;;;16.98;;
58069;SDS011;43863;52.256;21.048;2022-09-30T13:01:55;33.75;;;17.40;;
58069;SDS011;43863;52.256;21.048;2022-09-30T13:04:37;36.20;;;17.02;;
58069;SDS011;43863;52.256;21.048;2022-09-30T13:07:15;31.85;;;15.73;;
58069;SDS011;43863;52.256;21.048;2022-09-30T13:12:54;31.13;;;16.27;;
58069;SDS011;43863;52.256;21.048;2022-09-30T13:15:57;29.98;;;16.50;;
58069;SDS011;43863;52.256;21.048;2022-09-30T13:26:54;34.38;;;16.08;;
58069;SDS011;43863;52.256;21.048;2022-09-30T13:31:28;31.60;;;16.73;;
58069;SDS011;43863;52.256;21.048;2022-09-30T13:36:30;32.25;;;15.80;;
58069;SDS011;43863;52.256;21.048;2022-09-30T13:39:24;28.80;;;14.63;;
58069;SDS011;43863;52.256;21.048;2022-09-30T13:50:28;29.50;;;15.25;;
58069;SDS011;43863;52.256;21.048;2022-09-30T13:53:00;27.80;;;15.45;;
58069;SDS011;43863;52.256;21.048;2022-09-30T13:55:41;28.02;;;15.23;;
58069;SDS011;43863;52.256;21.048;2022-09-30T14:09:13;27.45;;;15.25;;
58069;SDS011;43863;52.256;21.048;2022-09-30T14:14:38;27.90;;;14.90;;
58069;SDS011;43863;52.256;21.048;2022-09-30T14:22:37;25.83;;;13.23;;
58069;SDS011;43863;52.256;21.048;2022-09-30T14:25:09;25.88;;;13.75;;
58069;SDS011;43863;52.256;21.048;2022-09-30T14:28:16;24.98;;;13.88;;
58069;SDS011;43863;52.256;21.048;2022-09-30T14:30:44;28.58;;;14.35;;
58069;SDS011;43863;52.256;21.048;2022-09-30T14:33:34;30.33;;;15.32;;
58069;SDS011;43863;52.256;21.048;2022-09-30T14:36:05;32.03;;;15.77;;
58069;SDS011;43863;52.256;21.048;2022-09-30T14:38:41;30.13;;;15.77;;
58069;SDS011;43863;52.256;21.048;2022-09-30T14:41:13;32.28;;;17.70;;
58069;SDS011;43863;52.256;21.048;2022-09-30T14:43:45;53.63;;;28.00;;
58069;SDS011;43863;52.256;21.048;2022-09-30T14:46:49;44.67;;;24.73;;
58069;SDS011;43863;52.256;21.048;2022-09-30T14:49:14;31.30;;;16.02;;
58069;SDS011;43863;52.256;21.048;2022-09-30T14:51:46;31.75;;;17.60;;
58069;SDS011;43863;52.256;21.048;2022-09-30T14:54:19;36.00;;;16.92;;
58069;SDS011;43863;52.256;21.048;2022-09-30T14:56:53;35.72;;;17.27;;
58069;SDS011;43863;52.256;21.048;2022-09-30T14:59:23;34.92;;;16.70;;
58069;SDS011;43863;52.256;21.048;2022-09-30T15:01:56;32.80;;;16.42;;
58069;SDS011;43863;52.256;21.048;2022-09-30T15:04:27;32.13;;;17.35;;
58069;SDS011;43863;52.256;21.048;2022-09-30T15:09:47;35.55;;;17.55;;
58069;SDS011;43863;52.256;21.048;2022-09-30T15:12:18;31.17;;;16.92;;
58069;SDS011;43863;52.256;21.048;2022-09-30T15:17:20;36.33;;;18.05;;
58069;SDS011;43863;52.256;21.048;2022-09-30T15:19:51;51.60;;;17.70;;
58069;SDS011;43863;52.256;21.048;2022-09-30T15:22:22;34.67;;;17.83;;
58069;SDS011;43863;52.256;21.048;2022-09-30T15:24:53;38.83;;;20.02;;
58069;SDS011;43863;52.256;21.048;2022-09-30T15:27:23;39.38;;;18.75;;
58069;SDS011;43863;52.256;21.048;2022-09-30T15:30:42;38.30;;;18.85;;
58069;SDS011;43863;52.256;21.048;2022-09-30T15:32:44;42.95;;;19.08;;
58069;SDS011;43863;52.256;21.048;2022-09-30T15:35:18;37.92;;;18.15;;
58069;SDS011;43863;52.256;21.048;2022-09-30T15:37:49;39.08;;;17.00;;
58069;SDS011;43863;52.256;21.048;2022-09-30T15:40:19;40.65;;;20.65;;
58069;SDS011;43863;52.256;21.048;2022-09-30T15:43:08;39.88;;;18.50;;
58069;SDS011;43863;52.256;21.048;2022-09-30T15:45:38;38.60;;;18.95;;
58069;SDS011;43863;52.256;21.048;2022-09-30T15:50:54;40.50;;;19.65;;
58069;SDS011;43863;52.256;21.048;2022-09-30T15:53:29;38.63;;;19.60;;
58069;SDS011;43863;52.256;21.048;2022-09-30T15:56:22;39.50;;;19.73;;
58069;SDS011;43863;52.256;21.048;2022-09-30T15:58:54;39.10;;;19.65;;
58069;SDS011;43863;52.256;21.048;2022-09-30T16:06:33;40.80;;;19.30;;
58069;SDS011;43863;52.256;21.048;2022-09-30T16:09:05;40.08;;;20.20;;
58069;SDS011;43863;52.256;21.048;2022-09-30T16:17:26;48.63;;;21.00;;
58069;SDS011;43863;52.256;21.048;2022-09-30T16:20:01;44.85;;;21.23;;
58069;SDS011;43863;52.256;21.048;2022-09-30T16:22:53;45.63;;;20.88;;
58069;SDS011;43863;52.256;21.048;2022-09-30T16:25:23;51.40;;;23.52;;
58069;SDS011;43863;52.256;21.048;2022-09-30T16:27:55;45.13;;;22.02;;
58069;SDS011;43863;52.256;21.048;2022-09-30T16:30:26;46.53;;;22.35;;
58069;SDS011;43863;52.256;21.048;2022-09-30T16:32:56;47.30;;;24.23;;
58069;SDS011;43863;52.256;21.048;2022-09-30T16:35:26;48.47;;;24.20;;
58069;SDS011;43863;52.256;21.048;2022-09-30T16:38:03;53.60;;;24.52;;
58069;SDS011;43863;52.256;21.048;2022-09-30T16:40:33;51.40;;;25.98;;
58069;SDS011;43863;52.256;21.048;2022-09-30T16:43:05;51.15;;;25.80;;
58069;SDS011;43863;52.256;21.048;2022-09-30T16:45:35;44.03;;;22.45;;
58069;SDS011;43863;52.256;21.048;2022-09-30T16:48:24;48.88;;;24.35;;
58069;SDS011;43863;52.256;21.048;2022-09-30T16:51:03;45.05;;;23.20;;
58069;SDS011;43863;52.256;21.048;2022-09-30T16:53:46;53.78;;;23.58;;
58069;SDS011;43863;52.256;21.048;2022-09-30T16:56:15;52.65;;;24.58;;
58069;SDS011;43863;52.256;21.048;2022-09-30T16:58:44;52.28;;;25.02;;
58069;SDS011;43863;52.256;21.048;2022-09-30T17:01:22;56.38;;;26.33;;
58069;SDS011;43863;52.256;21.048;2022-09-30T17:03:52;47.60;;;23.92;;
58069;SDS011;43863;52.256;21.048;2022-09-30T17:06:28;54.15;;;26.60;;
58069;SDS011;43863;52.256;21.048;2022-09-30T17:08:58;52.42;;;25.65;;
58069;SDS011;43863;52.256;21.048;2022-09-30T17:11:29;54.85;;;28.92;;
58069;SDS011;43863;52.256;21.048;2022-09-30T17:14:00;57.63;;;26.67;;
58069;SDS011;43863;52.256;21.048;2022-09-30T17:16:29;52.58;;;27.52;;
58069;SDS011;43863;52.256;21.048;2022-09-30T17:18:57;54.78;;;25.45;;
58069;SDS011;43863;52.256;21.048;2022-09-30T17:21:26;53.40;;;25.67;;
58069;SDS011;43863;52.256;21.048;2022-09-30T17:23:54;58.70;;;27.85;;
58069;SDS011;43863;52.256;21.048;2022-09-30T17:26:22;59.67;;;28.13;;
58069;SDS011;43863;52.256;21.048;2022-09-30T17:28:50;56.88;;;28.42;;
58069;SDS011;43863;52.256;21.048;2022-09-30T17:31:23;52.63;;;27.70;;
58069;SDS011;43863;52.256;21.048;2022-09-30T17:33:51;59.40;;;29.38;;
58069;SDS011;43863;52.256;21.048;2022-09-30T17:36:19;49.13;;;26.45;;
58069;SDS011;43863;52.256;21.048;2022-09-30T17:38:51;50.67;;;25.50;;
58069;SDS011;43863;52.256;21.048;2022-09-30T17:41:20;54.97;;;25.33;;
58069;SDS011;43863;52.256;21.048;2022-09-30T17:44:06;47.08;;;24.20;;
58069;SDS011;43863;52.256;21.048;2022-09-30T17:46:43;46.53;;;24.20;;
58069;SDS011;43863;52.256;21.048;2022-09-30T17:49:12;49.28;;;24.20;;
58069;SDS011;43863;52.256;21.048;2022-09-30T17:51:49;49.15;;;25.02;;
58069;SDS011;43863;52.256;21.048;2022-09-30T17:54:17;47.97;;;23.75;;
58069;SDS011;43863;52.256;21.048;2022-09-30T17:56:45;48.60;;;22.80;;
58069;SDS011;43863;52.256;21.048;2022-09-30T17:59:14;51.45;;;24.52;;
58069;SDS011;43863;52.256;21.048;2022-09-30T18:01:41;60.05;;;28.38;;
58069;SDS011;43863;52.256;21.048;2022-09-30T18:04:10;67.93;;;30.95;;
58069;SDS011;43863;52.256;21.048;2022-09-30T18:06:38;85.65;;;36.38;;
58069;SDS011;43863;52.256;21.048;2022-09-30T18:09:05;85.18;;;41.53;;
58069;SDS011;43863;52.256;21.048;2022-09-30T18:11:34;89.55;;;40.72;;
58069;SDS011;43863;52.256;21.048;2022-09-30T18:14:10;94.55;;;41.72;;
58069;SDS011;43863;52.256;21.048;2022-09-30T18:16:39;74.75;;;37.15;;
58069;SDS011;43863;52.256;21.048;2022-09-30T18:19:10;71.30;;;33.72;;
58069;SDS011;43863;52.256;21.048;2022-09-30T18:22:26;62.80;;;32.53;;
58069;SDS011;43863;52.256;21.048;2022-09-30T18:25:21;61.03;;;29.33;;
58069;SDS011;43863;52.256;21.048;2022-09-30T18:27:55;65.78;;;29.65;;
58069;SDS011;43863;52.256;21.048;2022-09-30T18:30:24;59.38;;;28.52;;
58069;SDS011;43863;52.256;21.048;2022-09-30T18:32:52;57.55;;;27.48;;
58069;SDS011;43863;52.256;21.048;2022-09-30T18:35:22;52.75;;;25.33;;